Time;durP1;ratioP1;P1;durP2;ratioP2;P2;SDS_P1;SDS_P2;PMS_P1;PMS_P2;Temp;Humidity;BMP_temperature;BMP_pressure;BME280_temperature;BME280_humidity;BME280_pressure;Samples;Min_cycle;Max_cycle;Signal;HPM_P1;HPM_P2
2022/04/25 00:01:47;;;;;;;2.42;1.65;;;;;;;13.78;75.54;98030.73;1691271;83;21038;-64
2022/04/25 00:04:14;;;;;;;2.52;1.30;;;;;;;13.71;75.70;98020.14;1690248;83;20963;-65
2022/04/25 00:06:41;;;;;;;5.47;1.42;;;;;;;13.72;75.77;98020.92;1752752;81;20998;-64
2022/04/25 00:09:09;;;;;;;2.20;1.50;;;;;;;13.68;75.87;98021.92;1752490;81;20990;-64
2022/04/25 00:11:37;;;;;;;3.58;1.82;;;;;;;13.68;75.95;98023.77;1752495;81;21017;-64
2022/04/25 00:14:06;;;;;;;5.15;1.62;;;;;;;13.65;76.17;98026.88;1752414;81;20903;-66
2022/04/25 00:16:34;;;;;;;1.57;1.12;;;;;;;13.63;76.38;98026.30;1740305;81;20982;-62
2022/04/25 00:19:02;;;;;;;2.58;1.40;;;;;;;13.63;76.46;98012.94;1745515;81;20950;-65
2022/04/25 00:21:29;;;;;;;2.58;1.60;;;;;;;13.63;76.68;98015.61;1752770;81;21441;-65
2022/04/25 00:23:57;;;;;;;3.15;1.30;;;;;;;13.63;76.68;98017.22;1752378;81;21223;-65
2022/04/25 00:26:25;;;;;;;2.15;1.30;;;;;;;13.67;76.56;98014.11;1754747;80;20942;-64
2022/04/25 00:28:53;;;;;;;3.10;1.20;;;;;;;13.68;76.58;98017.91;1742211;80;20942;-65
2022/04/25 00:31:20;;;;;;;2.98;1.27;;;;;;;13.63;76.84;98012.42;1755244;80;20903;-63
2022/04/25 00:33:46;;;;;;;2.12;1.60;;;;;;;13.59;77.10;98018.73;1752082;81;21449;-64
2022/04/25 00:36:14;;;;;;;2.52;1.77;;;;;;;13.59;77.09;98017.91;1753577;80;20951;-62
2022/04/25 00:38:42;;;;;;;3.27;1.50;;;;;;;13.57;77.28;98011.46;1733421;81;20904;-64
2022/04/25 00:41:09;;;;;;;2.12;1.60;;;;;;;13.55;77.42;98009.55;1735208;80;21490;-64
2022/04/25 00:43:36;;;;;;;3.15;1.77;;;;;;;13.54;77.44;98003.89;1728272;80;20896;-64
2022/04/25 00:46:03;;;;;;;3.47;1.95;;;;;;;13.53;77.51;98003.58;1732949;82;21010;-63
2022/04/25 00:48:31;;;;;;;2.08;1.40;;;;;;;13.54;77.54;98013.75;1716251;82;21002;-63
2022/04/25 00:50:57;;;;;;;2.65;1.85;;;;;;;13.55;77.49;98021.56;1729947;80;20881;-63
2022/04/25 00:53:25;;;;;;;3.67;1.80;;;;;;;13.57;77.49;98020.81;1736214;80;21011;-64
2022/04/25 00:55:51;;;;;;;1.50;1.40;;;;;;;13.56;77.54;98013.83;1732209;81;21086;-63
2022/04/25 00:58:18;;;;;;;2.35;1.72;;;;;;;13.57;77.61;98002.63;1716626;80;21425;-66
2022/04/25 01:00:46;;;;;;;1.70;1.47;;;;;;;13.57;77.54;98003.45;1733077;82;20845;-65
2022/04/25 01:03:13;;;;;;;2.17;1.37;;;;;;;13.57;77.49;98004.78;1732673;82;21488;-63
2022/04/25 01:05:41;;;;;;;2.87;1.60;;;;;;;13.59;77.39;98002.70;1732933;82;21046;-66
2022/04/25 01:08:08;;;;;;;2.47;1.40;;;;;;;13.56;77.42;98007.14;1736935;80;21485;-64
2022/04/25 01:10:36;;;;;;;1.40;1.30;;;;;;;13.61;77.27;98005.95;1732936;81;20853;-62
2022/04/25 01:13:02;;;;;;;2.45;1.57;;;;;;;13.61;77.28;97999.78;1735182;80;21228;-63
2022/04/25 01:15:31;;;;;;;2.95;1.60;;;;;;;13.67;77.02;97992.73;1732957;80;20971;-65
2022/04/25 01:17:57;;;;;;;4.10;2.00;;;;;;;13.66;76.98;97991.91;1727573;80;20984;-64
2022/04/25 01:20:24;;;;;;;2.25;1.82;;;;;;;13.69;76.91;97994.68;1734967;80;21015;-65
2022/04/25 01:28:52;;;;;;;2.30;1.95;;;;;;;13.61;77.20;97971.21;1732831;82;20916;-63
2022/04/25 01:31:18;;;;;;;2.02;1.80;;;;;;;13.63;77.09;97973.13;1736715;80;20864;-63
2022/04/25 01:33:45;;;;;;;4.15;2.20;;;;;;;13.65;77.05;97970.25;1732798;82;21016;-62
2022/04/25 01:36:12;;;;;;;5.55;1.85;;;;;;;13.67;77.00;97979.37;1732900;82;21580;-62
2022/04/25 01:38:39;;;;;;;2.83;1.90;;;;;;;13.69;76.97;97971.97;1738352;80;21306;-63
2022/04/25 01:41:07;;;;;;;3.45;2.00;;;;;;;13.69;76.91;97971.97;1749596;80;20964;-66
2022/04/25 01:43:37;;;;;;;2.37;2.00;;;;;;;13.69;76.91;97975.97;1751371;80;21482;-64
2022/04/25 01:46:04;;;;;;;2.15;1.95;;;;;;;13.70;76.81;97972.24;1753685;80;21041;-64
2022/04/25 01:48:31;;;;;;;2.55;2.27;;;;;;;13.70;76.85;97975.73;1751902;81;21534;-66
2022/04/25 01:50:58;;;;;;;4.95;2.10;;;;;;;13.71;76.74;97978.71;1753728;80;21292;-64
2022/04/25 01:53:26;;;;;;;3.85;2.58;;;;;;;13.73;76.65;97971.28;1753750;80;20931;-63
2022/04/25 01:55:53;;;;;;;2.95;2.17;;;;;;;13.74;76.63;97978.78;1752427;81;20911;-63
2022/04/25 01:58:19;;;;;;;3.08;2.50;;;;;;;13.74;76.57;97972.89;1740623;81;20899;-64
2022/04/25 02:00:47;;;;;;;3.22;2.00;;;;;;;13.75;76.58;97967.03;1738253;80;21468;-63
2022/04/25 02:03:14;;;;;;;4.17;2.50;;;;;;;13.76;76.49;97964.15;1753869;80;21165;-64
2022/04/25 02:05:40;;;;;;;2.80;2.40;;;;;;;13.76;76.47;97961.99;1746144;81;21037;-63
2022/04/25 02:08:08;;;;;;;2.67;2.30;;;;;;;13.75;76.47;97960.34;1748229;80;20948;-64
2022/04/25 02:10:35;;;;;;;3.30;2.62;;;;;;;13.77;76.37;97964.42;1746870;80;20988;-64
2022/04/25 02:13:03;;;;;;;4.05;2.70;;;;;;;13.76;76.33;97959.32;1755308;80;21635;-65
2022/04/25 02:15:31;;;;;;;3.67;2.30;;;;;;;13.80;76.25;97949.28;1753819;80;21201;-64
2022/04/25 02:17:57;;;;;;;2.67;2.47;;;;;;;13.83;76.19;97948.00;1752429;81;21466;-64
2022/04/25 02:20:24;;;;;;;4.03;2.50;;;;;;;13.83;76.17;97951.50;1751589;81;20935;-66
2022/04/25 02:22:51;;;;;;;4.42;2.25;;;;;;;13.85;76.10;97953.42;1753565;80;20880;-66
2022/04/25 02:25:20;;;;;;;3.08;1.92;;;;;;;13.89;76.02;97957.80;1752666;81;21444;-63
2022/04/25 02:27:46;;;;;;;2.50;2.30;;;;;;;13.88;75.97;97955.64;1752486;81;21230;-65
2022/04/25 02:30:13;;;;;;;2.80;2.42;;;;;;;13.91;75.93;97953.03;1743014;80;20974;-65
2022/04/25 02:32:42;;;;;;;5.30;2.98;;;;;;;13.92;75.87;97950.11;1752831;80;21122;-63
2022/04/25 02:35:10;;;;;;;4.00;2.58;;;;;;;13.92;75.98;97944.77;1753805;80;21014;-62
2022/04/25 02:37:37;;;;;;;5.80;2.95;;;;;;;13.95;75.90;97939.48;1753549;80;20977;-62
2022/04/25 02:40:08;;;;;;;4.65;2.83;;;;;;;13.97;75.78;97941.44;1745656;81;21487;-65
2022/04/25 02:42:34;;;;;;;3.83;2.72;;;;;;;13.97;75.73;97943.59;1724718;80;20999;-65
2022/04/25 02:45:01;;;;;;;4.78;2.72;;;;;;;13.98;75.66;97939.03;1722703;82;20950;-64
2022/04/25 02:47:29;;;;;;;5.10;3.30;;;;;;;13.99;75.57;97948.70;1733937;80;21473;-65
2022/04/25 02:49:57;;;;;;;3.72;3.20;;;;;;;13.99;75.55;97952.19;1732321;82;21070;-64
2022/04/25 02:52:24;;;;;;;4.80;3.22;;;;;;;13.99;75.49;97948.70;1711650;82;22093;-65
2022/04/25 02:54:51;;;;;;;6.25;3.67;;;;;;;13.98;75.49;97940.38;1732987;80;20987;-63
2022/04/25 02:57:19;;;;;;;5.67;3.42;;;;;;;13.97;75.54;97941.44;1733459;80;20935;-64
2022/04/25 02:59:46;;;;;;;5.45;3.45;;;;;;;13.97;75.47;97952.13;1735131;80;20996;-62
2022/04/25 03:02:14;;;;;;;7.47;3.45;;;;;;;13.94;75.52;97954.73;1730771;82;21057;-65
2022/04/25 03:04:41;;;;;;;4.85;2.87;;;;;;;13.94;75.48;97959.27;1705124;80;22102;-63
2022/04/25 03:07:09;;;;;;;5.95;3.35;;;;;;;13.92;75.49;97959.47;1732662;82;20849;-64
2022/04/25 03:09:36;;;;;;;4.15;3.02;;;;;;;13.92;75.54;97962.14;1733124;80;20980;-64
2022/04/25 03:12:04;;;;;;;7.45;3.08;;;;;;;13.94;75.43;97965.95;1732104;82;20908;-65
2022/04/25 03:14:31;;;;;;;4.03;3.22;;;;;;;13.95;75.41;97963.55;1734724;80;21075;-64
2022/04/25 03:16:58;;;;;;;4.15;2.83;;;;;;;13.96;75.41;97962.00;1721236;83;21258;-65
2022/04/25 03:19:25;;;;;;;4.83;2.92;;;;;;;13.98;75.36;97964.44;1724752;83;20984;-67
2022/04/25 03:21:53;;;;;;;3.87;2.83;;;;;;;13.99;75.29;97966.08;1722429;83;21440;-66
2022/04/25 03:24:20;;;;;;;6.60;3.17;;;;;;;13.99;75.30;97973.58;1724348;83;20956;-65
2022/04/25 03:26:47;;;;;;;6.97;2.95;;;;;;;14.00;75.31;97975.73;1724803;83;20932;-65
2022/04/25 03:29:13;;;;;;;5.42;3.50;;;;;;;14.01;75.28;97983.52;1724565;83;22121;-65
2022/04/25 03:31:42;;;;;;;4.55;2.98;;;;;;;14.04;75.29;97989.75;1723822;83;21382;-64
2022/04/25 03:34:10;;;;;;;4.08;3.00;;;;;;;14.08;75.23;97984.74;1705159;83;20943;-64
2022/04/25 03:36:37;;;;;;;5.50;2.70;;;;;;;14.11;75.12;97994.99;1709690;82;20953;-66
2022/04/25 03:39:06;;;;;;;4.97;2.90;;;;;;;14.13;75.03;98007.09;1724817;83;20999;-65
2022/04/25 03:41:34;;;;;;;4.92;2.95;;;;;;;14.11;74.98;97998.48;1723613;83;20937;-62
2022/04/25 03:44:01;;;;;;;4.72;2.98;;;;;;;14.12;74.92;98001.47;1719144;83;21434;-64
2022/04/25 03:46:30;;;;;;;4.37;2.47;;;;;;;14.13;74.85;97991.05;1717542;82;20976;-65
2022/04/25 03:48:56;;;;;;;4.40;2.45;;;;;;;14.13;74.83;97985.70;1735004;80;20939;-65
2022/04/25 03:51:23;;;;;;;4.55;2.90;;;;;;;14.14;74.80;97992.69;1732458;82;20944;-64
2022/04/25 03:53:50;;;;;;;2.77;2.30;;;;;;;14.15;74.83;97997.52;1731249;80;22083;-65
2022/04/25 03:59:02;;;;;;;4.45;2.70;;;;;;;14.20;74.58;97997.13;1717417;82;21043;-62
2022/04/25 04:01:31;;;;;;;5.22;2.83;;;;;;;14.21;74.45;97992.05;1723280;80;21013;-63
2022/04/25 04:04:04;;;;;;;5.05;2.30;;;;;;;14.23;74.42;97990.51;1732694;82;21412;-65
2022/04/25 04:06:26;;;;;;;5.70;2.65;;;;;;;14.25;74.35;97984.40;1714810;80;21799;-66
2022/04/25 04:08:54;;;;;;;9.30;3.17;;;;;;;14.26;74.26;97987.34;1737412;80;20951;-66
2022/04/25 04:11:22;;;;;;;4.53;2.80;;;;;;;14.26;74.31;97982.55;1732606;82;21034;-63
2022/04/25 04:13:50;;;;;;;6.28;2.72;;;;;;;14.28;74.22;97988.48;1733013;82;20881;-64
2022/04/25 04:16:18;;;;;;;4.35;2.77;;;;;;;14.28;74.18;97998.66;1732436;80;20875;-62
2022/04/25 04:18:46;;;;;;;7.53;2.83;;;;;;;14.30;74.12;97996.56;1733029;82;20932;-64
2022/04/25 04:21:13;;;;;;;6.40;3.08;;;;;;;14.30;74.16;97993.89;1734532;80;21741;-63
2022/04/25 04:23:41;;;;;;;5.87;3.00;;;;;;;14.33;74.13;98002.83;1734518;80;20991;-66
2022/04/25 04:26:07;;;;;;;9.10;2.85;;;;;;;14.36;74.09;98005.05;1729674;80;20946;-65
2022/04/25 04:28:36;;;;;;;5.55;2.80;;;;;;;14.39;73.93;98004.56;1716946;83;20979;-66
2022/04/25 04:31:03;;;;;;;7.00;3.12;;;;;;;14.41;73.92;98010.52;1699876;83;21219;-63
2022/04/25 04:33:30;;;;;;;4.08;3.15;;;;;;;14.42;73.93;98018.82;1717585;82;20976;-62
2022/04/25 04:38:41;;;;;;;4.17;2.55;;;;;;;14.50;73.74;98011.80;1735252;80;21474;-67
2022/04/25 04:41:08;;;;;;;4.90;3.42;;;;;;;14.50;73.64;98012.32;1743357;80;21022;-64
2022/04/25 04:43:36;;;;;;;6.45;2.87;;;;;;;14.54;73.50;98011.66;1752654;81;20849;-63
2022/04/25 04:46:03;;;;;;;6.60;3.25;;;;;;;14.56;73.40;98004.20;1742553;81;21011;-66
2022/04/25 04:48:31;;;;;;;7.05;3.52;;;;;;;14.55;73.36;98007.91;1742950;80;20947;-66
2022/04/25 04:50:58;;;;;;;6.72;2.60;;;;;;;14.62;73.26;98013.99;1752318;81;20939;-66
2022/04/25 04:53:25;;;;;;;4.45;3.10;;;;;;;14.65;73.23;98012.16;1752528;81;21512;-64
2022/04/25 04:55:53;;;;;;;8.55;3.20;;;;;;;14.70;73.20;98009.61;1752465;81;21315;-63
2022/04/25 04:58:20;;;;;;;8.43;3.95;;;;;;;14.77;73.00;98012.19;1751965;81;20922;-64
2022/04/25 05:00:47;;;;;;;5.90;3.50;;;;;;;14.82;72.76;98015.80;1754004;80;20981;-62
2022/04/25 05:03:15;;;;;;;4.87;3.55;;;;;;;14.88;72.51;98017.26;1752886;80;21006;-65
2022/04/25 05:05:45;;;;;;;6.12;3.27;;;;;;;14.88;72.28;98022.09;1748424;80;21548;-65
2022/04/25 05:08:12;;;;;;;9.18;3.55;;;;;;;14.88;72.27;98026.63;1749005;80;21339;-63
2022/04/25 05:10:40;;;;;;;5.92;2.70;;;;;;;14.90;72.22;98017.31;1739947;80;20942;-65
2022/04/25 05:13:08;;;;;;;9.78;3.27;;;;;;;14.96;71.93;98016.39;1753666;80;20971;-65
2022/04/25 05:15:36;;;;;;;7.87;3.77;;;;;;;14.97;71.93;98020.69;1748481;81;21005;-62
2022/04/25 05:18:04;;;;;;;4.33;2.90;;;;;;;15.01;71.83;98020.53;1736449;80;21548;-66
2022/04/25 05:20:30;;;;;;;4.53;3.25;;;;;;;15.08;71.68;98019.05;1753564;80;21159;-63
2022/04/25 05:22:58;;;;;;;3.30;2.40;;;;;;;15.10;71.58;98020.97;1755042;80;20995;-65
2022/04/25 05:25:25;;;;;;;2.50;2.30;;;;;;;15.15;71.44;98026.44;1753982;80;21048;-63
2022/04/25 05:27:54;;;;;;;4.20;2.75;;;;;;;15.16;71.23;98020.86;1755223;80;20943;-63
2022/04/25 05:30:25;;;;;;;5.08;3.08;;;;;;;15.20;71.17;98019.87;1751742;81;20946;-66
2022/04/25 05:32:54;;;;;;;5.95;2.87;;;;;;;15.25;71.08;98019.44;1752347;81;22370;-64
2022/04/25 05:35:27;;;;;;;5.10;2.90;;;;;;;15.33;70.97;98023.09;1749329;81;20959;-62
2022/04/25 05:37:54;;;;;;;4.03;2.83;;;;;;;15.41;70.74;98018.72;1737876;82;20911;-63
2022/04/25 05:40:21;;;;;;;7.22;3.00;;;;;;;15.48;70.44;98025.34;1742134;80;20951;-66
2022/04/25 05:42:48;;;;;;;4.35;2.83;;;;;;;15.55;70.39;98026.53;1739926;82;21580;-63
2022/04/25 05:45:21;;;;;;;5.90;3.05;;;;;;;15.63;70.12;98028.33;1752247;81;20998;-64
2022/04/25 05:47:48;;;;;;;5.30;2.90;;;;;;;15.71;69.84;98037.34;1748214;80;20918;-62
2022/04/25 05:53:01;;;;;;;3.95;2.80;;;;;;;15.88;69.31;98039.55;1751120;81;20947;-66
2022/04/25 05:55:31;;;;;;;6.12;3.02;;;;;;;15.90;69.08;98036.09;1752439;81;20895;-62
2022/04/25 05:58:03;;;;;;;5.08;2.87;;;;;;;15.98;68.98;98037.06;1740326;82;21398;-63
2022/04/25 06:00:30;;;;;;;3.87;2.55;;;;;;;16.09;68.71;98040.75;1753842;80;20955;-67
2022/04/25 06:02:58;;;;;;;5.65;2.75;;;;;;;16.20;68.47;98047.13;1749635;80;20956;-67
2022/04/25 06:05:26;;;;;;;3.58;2.65;;;;;;;16.29;68.14;98049.72;1744774;80;20947;-64
2022/04/25 06:07:54;;;;;;;7.70;3.08;;;;;;;16.40;67.84;98047.51;1733439;81;21004;-65
2022/04/25 06:10:28;;;;;;;3.52;2.50;;;;;;;16.48;67.49;98044.41;1750068;81;21245;-64
2022/04/25 06:12:56;;;;;;;5.12;2.87;;;;;;;16.56;67.06;98049.41;1753308;80;20950;-67
2022/04/25 06:15:27;;;;;;;3.60;2.62;;;;;;;16.65;66.45;98043.41;1752709;80;21609;-68
2022/04/25 06:17:55;;;;;;;5.12;3.30;;;;;;;16.72;66.22;98043.24;1738359;80;20994;-64
2022/04/25 06:20:23;;;;;;;4.17;2.35;;;;;;;16.83;65.89;98042.36;1752555;81;20884;-65
2022/04/25 06:22:59;;;;;;;5.92;2.98;;;;;;;16.89;65.52;98044.07;1748664;80;20947;-64
2022/04/25 06:25:29;;;;;;;5.53;3.17;;;;;;;16.96;65.29;98051.95;1750800;81;21441;-65
2022/04/25 06:27:57;;;;;;;5.12;2.75;;;;;;;17.07;65.11;98047.84;1752319;81;21010;-67
2022/04/25 06:30:28;;;;;;;5.03;3.20;;;;;;;17.17;64.94;98045.30;1751668;81;21088;-65
2022/04/25 06:32:58;;;;;;;6.72;2.75;;;;;;;17.36;64.63;98043.68;1743991;80;20938;-63
2022/04/25 06:35:25;;;;;;;6.55;2.80;;;;;;;17.53;64.30;98049.32;1737035;80;21175;-66
2022/04/25 06:37:51;;;;;;;5.35;3.33;;;;;;;17.72;63.91;98051.18;1686395;85;20951;-65
2022/04/25 06:40:20;;;;;;;3.50;2.42;;;;;;;17.90;63.28;98054.90;1726387;83;20952;-66
2022/04/25 06:42:47;;;;;;;3.05;2.58;;;;;;;18.05;62.72;98055.06;1724424;82;21819;-65
2022/04/25 06:45:15;;;;;;;4.08;2.25;;;;;;;18.16;62.15;98060.03;1722325;83;21026;-67
2022/04/25 06:47:43;;;;;;;4.85;2.30;;;;;;;18.25;61.58;98056.63;1712264;83;21703;-67
2022/04/25 06:50:11;;;;;;;3.98;2.00;;;;;;;18.32;60.83;98050.53;1712889;82;20893;-66
2022/04/25 06:52:40;;;;;;;5.60;2.92;;;;;;;18.34;59.87;98057.81;1723022;83;20913;-64
2022/04/25 06:55:08;;;;;;;3.10;2.02;;;;;;;18.36;59.50;98054.33;1749621;82;20982;-65
2022/04/25 06:57:37;;;;;;;3.10;1.90;;;;;;;18.46;59.25;98062.50;1748542;80;20995;-65
2022/04/25 07:00:08;;;;;;;5.65;2.55;;;;;;;18.64;59.08;98062.69;1747487;80;21229;-65
2022/04/25 07:02:38;;;;;;;4.20;1.95;;;;;;;18.83;58.65;98055.05;1742416;82;21048;-64
2022/04/25 07:05:07;;;;;;;5.53;2.20;;;;;;;19.11;58.01;98056.06;1743443;80;21017;-67
2022/04/25 07:07:35;;;;;;;4.45;2.20;;;;;;;19.25;57.19;98051.86;1749365;80;20995;-65
2022/04/25 07:10:01;;;;;;;5.17;2.10;;;;;;;19.56;56.57;98051.00;1751526;80;20895;-68
2022/04/25 07:12:28;;;;;;;3.02;1.75;;;;;;;19.76;55.83;98059.74;1748032;82;21161;-66
2022/04/25 07:14:55;;;;;;;4.97;1.75;;;;;;;20.10;55.06;98050.69;1749561;82;20923;-66
2022/04/25 07:17:23;;;;;;;3.55;1.70;;;;;;;20.33;54.66;98051.59;1751117;80;21178;-67
2022/04/25 07:19:51;;;;;;;5.28;2.02;;;;;;;20.74;53.82;98054.61;1749652;82;20954;-66
2022/04/25 07:30:36;;;;;;;5.90;1.70;;;;;;;23.44;46.94;98037.13;1752811;80;20931;-66
2022/04/25 07:33:03;;;;;;;4.17;1.55;;;;;;;23.96;45.56;98043.84;1749315;80;21557;-65
2022/04/25 07:35:29;;;;;;;3.10;1.35;;;;;;;25.58;41.76;98038.64;1751564;80;21418;-64
2022/04/25 07:37:56;;;;;;;4.37;2.00;;;;;;;25.58;41.76;98038.64;1751344;80;21208;-65
2022/04/25 07:40:24;;;;;;;2.33;1.27;;;;;;;26.50;39.66;98031.00;1748495;82;20930;-64
2022/04/25 07:42:50;;;;;;;2.80;1.37;;;;;;;27.33;37.81;98032.23;1737115;82;20927;-64
2022/04/25 07:45:18;;;;;;;5.25;1.30;;;;;;;27.86;35.74;98035.73;1750996;80;21003;-65
2022/04/25 07:47:46;;;;;;;2.80;1.55;;;;;;;28.25;34.94;98028.05;1750941;80;20974;-63
2022/04/25 07:50:14;;;;;;;3.83;1.47;;;;;;;28.84;33.87;98020.19;1749776;82;21254;-63
2022/04/25 07:52:42;;;;;;;5.22;1.25;;;;;;;29.41;32.93;98016.07;1751162;80;21494;-65
2022/04/25 07:55:09;;;;;;;2.87;1.10;;;;;;;30.09;31.70;98017.72;1750627;80;20903;-62
2022/04/25 07:57:36;;;;;;;2.77;1.42;;;;;;;30.64;30.78;98010.64;1749704;82;21518;-63
2022/04/25 08:00:05;;;;;;;2.95;1.40;;;;;;;31.19;30.12;98015.80;1738487;82;21003;-63
2022/04/25 08:02:34;;;;;;;3.22;1.47;;;;;;;31.84;29.21;98016.83;1749611;82;21519;-65
2022/04/25 08:05:02;;;;;;;2.17;1.20;;;;;;;32.38;28.26;98014.08;1749653;82;20919;-62
2022/04/25 08:07:29;;;;;;;3.65;1.35;;;;;;;32.61;27.14;98002.80;1748795;82;20899;-61
2022/04/25 08:09:56;;;;;;;1.55;0.90;;;;;;;32.61;26.90;98011.06;1738924;82;20985;-63
2022/04/25 08:17:59;;;;;;;;;;;;;;;33.46;25.64;98005.95;1748411;80;21006;-63
2022/04/25 08:20:25;;;;;;;3.95;1.37;;;;;;;33.81;25.24;97996.42;1737631;80;20109;-65
2022/04/25 08:22:53;;;;;;;2.87;1.40;;;;;;;34.10;24.41;97999.30;1749711;82;20994;-63
2022/04/25 08:25:20;;;;;;;2.22;1.22;;;;;;;34.08;24.23;98006.53;1752935;80;21505;-64
2022/04/25 08:27:48;;;;;;;2.85;1.50;;;;;;;34.26;24.17;98004.77;1749877;82;21167;-63
2022/04/25 08:30:17;;;;;;;3.87;1.20;;;;;;;34.52;23.96;97999.44;1734102;82;22005;-63
2022/04/25 08:32:46;;;;;;;2.77;1.22;;;;;;;34.91;23.31;97999.66;1740766;80;20939;-66
2022/04/25 08:35:14;;;;;;;4.17;1.65;;;;;;;35.19;23.00;97997.48;1750171;80;21534;-65
2022/04/25 08:37:41;;;;;;;3.42;1.60;;;;;;;35.65;22.96;98002.46;1749086;80;21118;-66
2022/04/25 08:40:10;;;;;;;3.30;1.30;;;;;;;36.07;22.06;98006.52;1739285;82;21054;-66
2022/04/25 08:42:38;;;;;;;2.90;1.40;;;;;;;36.11;21.65;97999.66;1742226;82;21010;-67
2022/04/25 08:45:06;;;;;;;3.60;1.75;;;;;;;35.89;21.72;97999.89;1732727;82;21554;-66
2022/04/25 08:47:54;;;;;;;2.60;1.25;;;;;;;35.89;21.62;98001.27;1734893;80;20988;-64
2022/04/25 08:50:22;;;;;;;3.20;1.87;;;;;;;36.08;21.97;97998.44;1735058;80;21173;-67
2022/04/25 08:52:49;;;;;;;4.20;1.15;;;;;;;36.61;21.56;97993.64;1725758;80;21278;-68
2022/04/25 08:55:16;;;;;;;2.80;1.15;;;;;;;37.04;20.81;97991.63;1732655;82;21034;-65
2022/04/25 08:57:45;;;;;;;4.00;1.20;;;;;;;37.35;20.40;97996.48;1726821;80;21516;-65
2022/04/25 09:00:13;;;;;;;5.50;1.42;;;;;;;37.45;20.06;97996.63;1731298;80;20971;-66
2022/04/25 09:02:44;;;;;;;2.33;1.00;;;;;;;37.05;20.38;98000.14;1737323;80;20983;-64
2022/04/25 09:05:12;;;;;;;3.60;1.40;;;;;;;37.33;19.79;98001.05;1722170;82;21820;-67
2022/04/25 09:07:40;;;;;;;2.05;1.20;;;;;;;37.41;19.76;97995.80;1731451;82;20964;-65
2022/04/25 09:10:08;;;;;;;3.00;1.22;;;;;;;37.63;19.56;98002.32;1730506;82;21526;-64
2022/04/25 09:12:37;;;;;;;2.52;1.10;;;;;;;37.64;19.61;98005.31;1735346;80;20975;-64
2022/04/25 09:15:05;;;;;;;4.12;1.30;;;;;;;38.08;19.31;98003.89;1728738;80;21440;-64
2022/04/25 09:17:39;;;;;;;2.60;1.10;;;;;;;38.33;19.09;97998.54;1723654;83;21289;-65
2022/04/25 09:20:08;;;;;;;2.05;1.15;;;;;;;38.54;18.50;98000.02;1724831;83;21026;-62
2022/04/25 09:22:39;;;;;;;3.90;1.22;;;;;;;37.57;18.72;97997.70;1724758;83;20909;-65
2022/04/25 09:25:15;;;;;;;2.25;1.20;;;;;;;36.64;19.43;98007.33;1725021;83;21545;-64
2022/04/25 09:27:42;;;;;;;1.30;1.00;;;;;;;34.92;21.08;98004.03;1724684;83;21024;-65
2022/04/25 09:30:18;;;;;;;2.05;1.40;;;;;;;33.81;22.29;98001.12;1724784;83;21258;-64
2022/04/25 09:32:47;;;;;;;3.10;1.50;;;;;;;33.95;22.41;98003.63;1714579;83;21534;-61
2022/04/25 09:35:37;;;;;;;1.50;1.12;;;;;;;33.38;23.13;98003.35;1724325;83;20991;-65
2022/04/25 09:38:05;;;;;;;1.92;0.80;;;;;;;32.78;23.81;98003.06;1717130;82;21443;-65
2022/04/25 09:40:35;;;;;;;2.42;1.10;;;;;;;33.60;22.86;98000.03;1723733;83;21021;-63
2022/04/25 09:43:06;;;;;;;2.50;1.05;;;;;;;33.00;23.55;97996.20;1724478;82;21267;-67
2022/04/25 09:45:35;;;;;;;2.25;1.22;;;;;;;34.00;22.63;97992.89;1723941;83;20898;-63
2022/04/25 09:48:01;;;;;;;2.12;1.00;;;;;;;34.77;21.96;97997.20;1724821;83;20932;-63
2022/04/25 09:50:28;;;;;;;1.98;0.80;;;;;;;34.71;21.02;97994.73;1724432;83;20932;-60
2022/04/25 09:53:02;;;;;;;5.45;1.80;;;;;;;35.11;20.21;97988.84;1714412;83;21025;-62
2022/04/25 09:55:32;;;;;;;3.12;1.10;;;;;;;35.27;19.95;97996.45;1717345;83;21821;-63
2022/04/25 09:57:58;;;;;;;4.08;1.10;;;;;;;35.27;20.38;97981.83;1714139;83;20932;-62
2022/04/25 10:00:36;;;;;;;2.08;0.93;;;;;;;35.07;20.04;97980.25;1723226;83;20983;-64
2022/04/25 10:03:06;;;;;;;3.58;0.90;;;;;;;34.08;20.37;97985.03;1722674;83;21091;-62
2022/04/25 10:05:40;;;;;;;3.37;0.95;;;;;;;32.43;21.95;97992.39;1709571;82;21031;-66
2022/04/25 10:08:11;;;;;;;1.45;1.00;;;;;;;32.49;21.89;97997.28;1717120;83;20905;-62
2022/04/25 10:10:43;;;;;;;2.02;0.88;;;;;;;31.67;22.62;97989.02;1715811;83;20952;-64
2022/04/25 10:13:10;;;;;;;1.80;1.10;;;;;;;31.03;23.08;97985.44;1722078;83;21000;-64
2022/04/25 10:15:39;;;;;;;2.15;1.00;;;;;;;30.52;23.98;97980.41;1719626;83;21071;-64
2022/04/25 10:18:09;;;;;;;2.12;0.70;;;;;;;30.17;24.18;97979.03;1715934;83;21374;-59
2022/04/25 10:20:37;;;;;;;3.58;1.00;;;;;;;29.69;24.47;97984.39;1733576;80;21292;-59
2022/04/25 10:23:09;;;;;;;2.80;0.90;;;;;;;29.11;25.24;97977.41;1731942;82;20978;-62
2022/04/25 10:25:42;;;;;;;1.62;0.72;;;;;;;28.57;26.05;97973.45;1733692;80;20971;-60
2022/04/25 10:28:17;;;;;;;1.17;0.70;;;;;;;28.10;26.96;97971.92;1713816;82;20951;-63
2022/04/25 10:30:47;;;;;;;1.55;0.65;;;;;;;27.86;26.22;97980.27;1723439;82;21063;-60
2022/04/25 10:33:20;;;;;;;1.60;1.10;;;;;;;27.53;25.92;97976.55;1729010;80;21196;-63
2022/04/25 10:35:50;;;;;;;3.37;1.00;;;;;;;27.25;26.09;97970.20;1711897;82;21007;-62
2022/04/25 10:38:47;;;;;;;3.17;1.30;;;;;;;26.96;26.49;97970.15;1727173;80;20983;-62
2022/04/25 10:44:20;;;;;;;1.67;0.57;;;;;;;26.60;26.83;97977.58;1719974;80;21458;-62
2022/04/25 10:47:07;;;;;;;3.50;1.22;;;;;;;26.38;26.42;97974.86;1709574;82;21109;-61
2022/04/25 10:49:56;;;;;;;2.50;0.72;;;;;;;26.05;26.93;97979.65;1695846;82;21454;-63
2022/04/25 10:52:42;;;;;;;1.82;0.93;;;;;;;25.88;27.78;97975.95;1732232;81;21134;-63
2022/04/25 10:55:19;;;;;;;2.02;0.82;;;;;;;25.90;27.69;97977.81;1726728;80;21009;-64
2022/04/25 10:58:08;;;;;;;4.78;0.80;;;;;;;25.98;27.94;97983.91;1724342;80;21027;-62
2022/04/25 11:00:44;;;;;;;1.40;1.17;;;;;;;25.98;27.82;97979.81;1721523;82;21898;-62
2022/04/25 11:03:19;;;;;;;;;;;;;;;25.88;27.93;97980.85;1732739;80;20893;-64
2022/04/25 11:05:49;;;;;;;2.15;0.78;;;;;;;25.73;28.60;97978.45;1727311;82;20158;-64
2022/04/25 11:08:22;;;;;;;2.33;0.80;;;;;;;25.68;28.81;97977.98;1729693;82;22284;-62
2022/04/25 11:11:04;;;;;;;3.37;1.00;;;;;;;25.61;28.26;97983.03;1730518;80;20987;-62
2022/04/25 11:13:53;;;;;;;2.50;1.35;;;;;;;25.40;28.12;97989.14;1730454;80;21536;-61
2022/04/25 11:16:24;;;;;;;4.83;1.02;;;;;;;25.12;28.08;97990.48;1728195;82;20984;-62
2022/04/25 11:19:16;;;;;;;1.25;1.00;;;;;;;24.94;27.98;97996.80;1720734;82;21449;-62
2022/04/25 11:21:53;;;;;;;1.80;0.60;;;;;;;24.81;28.48;97996.75;1714535;83;20952;-62
2022/04/25 11:24:33;;;;;;;3.27;0.78;;;;;;;24.79;29.23;97992.98;1724595;83;21007;-63
2022/04/25 11:27:03;;;;;;;1.98;0.90;;;;;;;24.84;29.36;98006.48;1711017;83;21262;-62
2022/04/25 11:29:31;;;;;;;2.05;0.98;;;;;;;24.90;29.29;98001.20;1724085;83;21523;-63
2022/04/25 11:32:32;;;;;;;1.22;0.68;;;;;;;24.96;29.09;97997.30;1724899;83;20892;-62
2022/04/25 11:35:00;;;;;;;2.35;0.93;;;;;;;24.96;28.78;98002.73;1705679;83;20905;-62
2022/04/25 11:37:29;;;;;;;5.17;1.20;;;;;;;24.94;28.21;98000.06;1722662;83;21436;-61
2022/04/25 11:40:07;;;;;;;3.33;0.80;;;;;;;24.98;28.22;97991.55;1673617;85;21004;-62
2022/04/25 11:42:36;;;;;;;2.77;0.78;;;;;;;25.05;27.76;97993.34;1710812;82;21050;-62
2022/04/25 11:45:05;;;;;;;1.17;0.68;;;;;;;25.03;27.26;97987.38;1710633;82;21556;-67
2022/04/25 11:47:33;;;;;;;1.25;0.65;;;;;;;25.02;27.24;97984.42;1734277;80;20960;-62
2022/04/25 11:50:05;;;;;;;2.80;0.98;;;;;;;25.10;27.16;97984.55;1735544;80;20953;-61
2022/04/25 11:52:33;;;;;;;2.92;0.78;;;;;;;25.18;27.47;97981.68;1722704;80;20963;-63
2022/04/25 11:55:00;;;;;;;2.10;0.80;;;;;;;25.24;27.84;97981.03;1726051;82;20907;-62
2022/04/25 11:57:27;;;;;;;3.50;0.80;;;;;;;25.36;27.75;97978.61;1733696;80;21485;-62
2022/04/25 12:00:16;;;;;;;1.37;0.70;;;;;;;25.42;27.28;97978.20;1736034;80;20935;-63
2022/04/25 12:02:44;;;;;;;3.20;0.70;;;;;;;25.42;27.03;97980.92;1717718;82;21200;-61
2022/04/25 12:05:12;;;;;;;5.20;0.70;;;;;;;25.39;27.11;97976.11;1725667;80;21107;-62
2022/04/25 12:15:34;;;;;;;2.42;0.72;;;;;;;25.32;27.25;97974.31;1735876;80;20904;-61
2022/04/25 12:15:44;;;;;;;3.00;0.70;;;;;;;25.23;27.04;97985.66;1730104;82;21039;-62
2022/04/25 12:18:21;;;;;;;3.98;0.85;;;;;;;25.20;26.62;97984.90;1718969;80;21254;-62
2022/04/25 12:20:54;;;;;;;3.60;0.68;;;;;;;25.10;26.27;97981.82;1714290;82;21418;-63